Nearby METAR Reports

 

KLOT - Romeoville/Chi, Illinois, USA
Distance from station: N 3mi, 5km
Updated: Mon, 01-Jun-2020 7:35am CDT
Mostly cloudy
Mostly cloudy
 Wind from S
Wind: S 9 mph , 15 km/h
Temperature: 57°F , 14°C
Dew Point: 45°F , 7°C
Humidity: 63%
Barometer: 30.26 inHg , 1024.7 hPa
Clouds: Mostly cloudy
Visibility: 10 miles , 16 km
Cloud details: Mostly cloudy 11000 ft
2020/06/01 12:35 KLOT 011235Z AUTO 18008KT 10SM BKN110 14/07 A3026 RMK AO2 T01410071
KJOT - Joliet, Illinois, USA
Distance from station: WSW 5mi, 7km
Updated: Mon, 01-Jun-2020 7:35am CDT
Partly cloudy
Partly cloudy
 Wind from SSE
Wind: SSE 3 mph , 6 km/h
Temperature: 61°F , 16°C
Dew Point: 46°F , 8°C
Humidity: 59%
Barometer: 30.26 inHg , 1024.7 hPa
Clouds: Partly cloudy
Visibility: 10 miles , 16 km
Cloud details: Partly cloudy 11000 ft
2020/06/01 12:35 KJOT 011235Z AUTO 16003KT 10SM SCT110 16/08 A3026 RMK AO2 T01550075
 
KC09 - Morris-Washburn, Illinois, USA
Distance from station: WSW 18mi, 29km
Updated: Mon, 01-Jun-2020 7:35am CDT
Mostly cloudy
Mostly cloudy
 Wind from S
Wind: S 7 mph , 11 km/h
Temperature: 59°F , 15°C
Dew Point: 45°F , 7°C
Humidity: 59%
Barometer: 30.24 inHg , 1024 hPa
Clouds: Mostly cloudy
Visibility: 10 miles , 16 km
Cloud details: Mostly cloudy 9000 ft
Mostly cloudy 12000 ft
2020/06/01 12:35 KC09 011235Z AUTO 17006KT 10SM BKN090 BKN120 15/07 A3024 RMK AO2 T01540066
KARR - Chicago/Aurora, Illinois, USA
Distance from station: NW 24mi, 39km
Updated: Mon, 01-Jun-2020 6:52am CDT
Overcast
Overcast
 Wind from SE
Wind: SE 9 mph , 15 km/h
Temperature: 57°F , 14°C
Dew Point: 45°F , 7°C
Humidity: 63%
Barometer: 30.24 inHg , 1024 hPa
Clouds: Overcast
Visibility: 10 miles , 16 km
Cloud details: Overcast 10000 ft
2020/06/01 11:52 KARR 011152Z AUTO 14008KT 10SM OVC100 14/07 A3024 RMK AO2 SLP238 T01440067 10144 20106 55003
 
KMDW - Chicago, Illinois, USA
Distance from station: NE 25mi, 39km
Updated: Mon, 01-Jun-2020 6:53am CDT
Mostly cloudy
Mostly cloudy
 Wind from S
Wind: S 8 mph , 13 km/h
Temperature: 59°F , 15°C
Dew Point: 37°F , 3°C
Humidity: 45%
Barometer: 30.26 inHg , 1024.7 hPa
Clouds: Mostly cloudy
Visibility: 10 miles , 16 km
Cloud details: Mostly cloudy 10000 ft
Mostly cloudy 25000 ft
2020/06/01 11:53 KMDW 011153Z 18007KT 10SM BKN100 BKN250 15/03 A3026 RMK AO2 SLP243 T01500028 10150 20128 55002 $
KDPA - Chicago/Dupage, Illinois, USA
Distance from station: NNW 26mi, 42km
Updated: Mon, 01-Jun-2020 6:52am CDT
Overcast
Overcast
 Wind from SSE
Wind: SSE 7 mph , 11 km/h
Temperature: 57°F , 14°C
Dew Point: 43°F , 6°C
Humidity: 59%
Barometer: 30.24 inHg , 1024 hPa
Clouds: Overcast
Visibility: 10 miles , 16 km
Cloud details: Overcast 9500 ft
2020/06/01 11:52 KDPA 011152Z 16006KT 10SM OVC095 14/06 A3024 RMK AO2 SLP240 T01390061 10139 20100 55002
 
KIGQ - Chicago/Lansing, Illinois, USA
Distance from station: E 30mi, 48km
Updated: Mon, 01-Jun-2020 7:35am CDT
Mostly cloudy
Mostly cloudy
 
Temperature: 57°F , 14°C
Dew Point: 45°F , 7°C
Humidity: 63%
Barometer: 30.27 inHg , 1025.1 hPa
Clouds: Mostly cloudy
Visibility: 10 miles , 16 km
Cloud details: Mostly cloudy 10000 ft
Mostly cloudy 12000 ft
2020/06/01 12:35 KIGQ 011235Z 10SM BKN100 BKN120 14/07 A3027 RMK AO2 T01410065
KORD - Chicago O'hare, Illinois, USA
Distance from station: NNE 31mi, 50km
Updated: Mon, 01-Jun-2020 6:51am CDT
Mostly cloudy
Mostly cloudy
 Wind from S
Wind: S 8 mph , 13 km/h
Temperature: 57°F , 14°C
Dew Point: 37°F , 3°C
Humidity: 48%
Barometer: 30.25 inHg , 1024.4 hPa
Clouds: Mostly cloudy
Visibility: 10 miles , 16 km
Cloud details: Mostly cloudy 10000 ft
Mostly cloudy 25000 ft
2020/06/01 11:51 KORD 011151Z 18007KT 10SM BKN100 BKN250 14/03 A3025 RMK AO2 SLP241 T01440028 10144 20117 55003 $
 
KGYY - Gary Regional, Indiana, USA
Distance from station: E 36mi, 58km
Updated: Mon, 01-Jun-2020 7:45am CDT
Mostly cloudy
Mostly cloudy
 Wind from SSE
Wind: SSE 6 mph , 9 km/h
Temperature: 61°F , 16°C
Barometer: 30.27 inHg , 1025.1 hPa
Clouds: Mostly cloudy
Visibility: 10 miles , 16 km
Cloud details: Mostly cloudy 10000 ft
2020/06/01 12:45 KGYY 011245Z 15005KT 10SM BKN100 16/ A3027
KIKK - Kankakee, Illinois, USA
Distance from station: SSE 36mi, 58km
Updated: Mon, 01-Jun-2020 7:35am CDT
Overcast
Overcast
 Wind from S
Wind: S 5 mph , 7 km/h
Temperature: 61°F , 16°C
Dew Point: 45°F , 7°C
Humidity: 55%
Barometer: 30.28 inHg , 1025.4 hPa
Clouds: Overcast
Visibility: 10 miles , 16 km
Cloud details: Mostly cloudy 9000 ft
Overcast 11000 ft
2020/06/01 12:35 KIKK 011235Z AUTO 18004KT 10SM BKN090 OVC110 16/07 A3028 RMK AO2
 
KDKB - De Kalb, Illinois, USA
Distance from station: NW 40mi, 65km
Updated: Mon, 01-Jun-2020 7:35am CDT
Mostly cloudy
Mostly cloudy
 Wind from S
Wind: S 10 mph , 17 km/h
Temperature: 59°F , 15°C
Dew Point: 45°F , 7°C
Humidity: 59%
Barometer: 30.24 inHg , 1024 hPa
Clouds: Mostly cloudy
Visibility: 10 miles , 16 km
Cloud details: Partly cloudy 9000 ft
Mostly cloudy 12000 ft
2020/06/01 12:35 KDKB 011235Z AUTO 17009KT 10SM SCT090 BKN120 15/07 A3024 RMK AO2 T01460069
KPWK - Palwaukee, Illinois, USA
Distance from station: NNE 41mi, 65km
Updated: Mon, 01-Jun-2020 6:52am CDT
Mostly cloudy
Mostly cloudy
 Wind from S
Wind: S 7 mph , 11 km/h
Temperature: 57°F , 14°C
Dew Point: 41°F , 5°C
Humidity: 55%
Barometer: 30.26 inHg , 1024.7 hPa
Clouds: Mostly cloudy
Visibility: 10 miles , 16 km
Cloud details: Mostly cloudy 9500 ft
2020/06/01 11:52 KPWK 011152Z 17006KT 10SM BKN095 14/05 A3026 RMK AO2 SLP247 T01440050 10144 20106 55004